createdAt,value
2022-10-21T00:02:28.077Z,72.74
2022-10-21T00:05:15.421Z,73.17
2022-10-21T00:08:02.321Z,73.38
2022-10-21T00:10:49.384Z,72.52
2022-10-21T00:13:36.180Z,73.13
2022-10-21T00:16:23.262Z,72.45
2022-10-21T00:19:10.140Z,73.54
2022-10-21T00:21:57.149Z,73.30
2022-10-21T00:24:44.012Z,72.73
2022-10-21T00:27:31.080Z,72.59
2022-10-21T00:30:17.970Z,72.34
2022-10-21T00:33:04.796Z,73.07
2022-10-21T00:36:08.254Z,72.60
2022-10-21T00:38:36.377Z,72.98
2022-10-21T00:41:23.271Z,72.67
2022-10-21T00:44:20.697Z,72.74
2022-10-21T00:47:14.061Z,73.15
2022-10-21T00:50:17.462Z,72.44
2022-10-21T00:53:04.700Z,73.77
2022-10-21T00:55:56.725Z,72.61
2022-10-21T00:58:47.563Z,73.28
2022-10-21T01:01:35.244Z,73.44
2022-10-21T01:04:22.243Z,73.78
2022-10-21T01:07:09.992Z,73.04
2022-10-21T01:09:57.050Z,72.67
2022-10-21T01:13:20.886Z,73.58
2022-10-21T01:16:13.987Z,72.60
2022-10-21T01:19:12.211Z,73.20
2022-10-21T01:22:10.626Z,72.87
2022-10-21T01:25:20.965Z,72.87
2022-10-21T01:28:19.021Z,73.55
2022-10-21T01:31:30.667Z,73.33
2022-10-21T01:34:33.968Z,72.97
2022-10-21T01:37:45.590Z,73.08
2022-10-21T01:40:56.843Z,73.87
2022-10-21T01:43:55.712Z,72.72
2022-10-21T01:46:59.722Z,73.26
2022-10-21T01:49:55.332Z,72.79
2022-10-21T01:52:43.124Z,73.07
2022-10-21T01:55:35.047Z,73.24
2022-10-21T01:58:26.294Z,72.82
2022-10-21T02:01:16.615Z,74.02
2022-10-21T02:04:07.232Z,73.02
2022-10-21T02:06:54.288Z,72.68
2022-10-21T02:09:41.300Z,73.96
2022-10-21T02:12:30.020Z,72.66
2022-10-21T02:15:20.583Z,73.90
2022-10-21T02:18:13.839Z,73.92
2022-10-21T02:21:03.607Z,73.53
2022-10-21T02:23:59.973Z,72.96
2022-10-21T02:26:48.790Z,73.44
2022-10-21T02:29:42.539Z,72.97
2022-10-21T02:32:56.974Z,72.53
2022-10-21T02:36:01.392Z,73.57
2022-10-21T02:38:56.988Z,72.53
2022-10-21T02:41:47.188Z,72.95
2022-10-21T02:44:34.277Z,72.73
2022-10-21T02:47:22.932Z,73.78
2022-10-21T02:50:09.937Z,72.55
2022-10-21T02:52:56.772Z,73.63
2022-10-21T02:55:44.164Z,74.04
2022-10-21T02:58:31.188Z,73.50
2022-10-21T03:01:18.573Z,72.82
2022-10-21T03:04:05.716Z,72.95
2022-10-21T03:06:52.716Z,73.31
2022-10-21T03:09:39.686Z,72.98
2022-10-21T03:12:26.651Z,74.10
2022-10-21T03:15:13.475Z,72.82
2022-10-21T03:18:00.589Z,73.41
2022-10-21T03:20:47.464Z,72.71
2022-10-21T03:23:34.538Z,73.50
2022-10-21T03:26:21.364Z,73.80
2022-10-21T03:29:08.344Z,73.50
2022-10-21T03:31:55.179Z,72.66
2022-10-21T03:34:42.252Z,73.48
2022-10-21T03:37:29.037Z,73.01
2022-10-21T03:40:16.028Z,74.12
2022-10-21T03:43:02.837Z,73.40
2022-10-21T03:45:49.936Z,73.31
2022-10-21T03:48:36.823Z,73.33
2022-10-21T03:51:23.815Z,72.82
2022-10-21T03:54:10.856Z,73.58
2022-10-21T03:56:57.871Z,73.18
2022-10-21T03:59:45.236Z,73.78
2022-10-21T04:02:32.496Z,73.31
2022-10-21T04:05:19.583Z,74.20
2022-10-21T04:08:06.480Z,74.26
2022-10-21T04:10:53.479Z,72.91
2022-10-21T04:13:40.395Z,73.01
2022-10-21T04:16:30.468Z,73.42
2022-10-21T04:19:17.556Z,74.05
2022-10-21T04:22:05.463Z,73.89
2022-10-21T04:24:52.402Z,74.71
2022-10-21T04:27:39.364Z,73.54
2022-10-21T04:30:27.116Z,74.01
2022-10-21T04:33:14.102Z,74.69
2022-10-21T04:36:01.192Z,74.28
2022-10-21T04:38:48.148Z,73.43
2022-10-21T04:41:35.100Z,74.67
2022-10-21T04:44:23.128Z,74.29
2022-10-21T04:47:10.132Z,74.78
2022-10-21T04:49:56.964Z,74.47
2022-10-21T04:52:43.997Z,73.29
2022-10-21T04:55:32.156Z,73.60
2022-10-21T04:58:21.777Z,74.04
2022-10-21T05:01:11.096Z,73.57
2022-10-21T05:03:58.353Z,73.72
2022-10-21T05:06:45.349Z,73.20
2022-10-21T05:09:32.404Z,73.07
2022-10-21T05:12:19.339Z,73.69
2022-10-21T05:15:06.285Z,73.56
2022-10-21T05:17:53.160Z,73.62
2022-10-21T05:20:40.768Z,74.18
2022-10-21T05:23:27.708Z,73.76
2022-10-21T05:26:14.893Z,74.31
2022-10-21T05:29:01.827Z,74.24
2022-10-21T05:31:48.918Z,74.07
2022-10-21T05:34:35.793Z,74.65
2022-10-21T05:37:22.765Z,73.22
2022-10-21T05:40:09.621Z,74.14
2022-10-21T05:42:56.539Z,74.59
2022-10-21T05:45:43.552Z,74.55
2022-10-21T05:48:30.584Z,73.78
2022-10-21T05:51:17.417Z,73.81
2022-10-21T05:54:04.641Z,73.61
2022-10-21T05:56:52.047Z,73.78
2022-10-21T05:59:39.178Z,73.63
2022-10-21T06:02:26.728Z,73.45
2022-10-21T06:05:13.795Z,73.91
2022-10-21T06:08:00.991Z,73.85
2022-10-21T06:10:47.837Z,73.55
2022-10-21T06:13:34.885Z,73.73
2022-10-21T06:16:22.202Z,73.83
2022-10-21T06:19:09.151Z,73.39
2022-10-21T06:45:14.417Z,73.79
2022-10-21T06:48:01.251Z,73.85
2022-10-21T06:50:48.551Z,73.89
2022-10-21T06:53:38.221Z,73.75
2022-10-21T06:56:29.515Z,74.49
2022-10-21T06:59:17.999Z,73.51
2022-10-21T07:02:05.123Z,74.20
2022-10-21T07:04:51.922Z,74.63
2022-10-21T07:07:40.004Z,74.62
2022-10-21T07:10:27.424Z,74.51
2022-10-21T07:13:14.340Z,73.83
2022-10-21T07:16:01.221Z,73.77
2022-10-21T07:18:48.469Z,74.96
2022-10-21T07:21:38.799Z,73.86
2022-10-21T07:24:26.283Z,74.33
2022-10-21T07:27:13.132Z,75.27
2022-10-21T07:30:00.176Z,74.54
2022-10-21T07:32:47.104Z,75.21
2022-10-21T07:35:34.196Z,75.32
2022-10-21T07:38:22.859Z,75.06
2022-10-21T07:41:09.992Z,74.40
2022-10-21T07:43:56.961Z,75.54
2022-10-21T07:46:44.227Z,75.55
2022-10-21T07:49:33.113Z,75.96
2022-10-21T07:52:20.138Z,75.75
2022-10-21T07:55:07.215Z,75.25
2022-10-21T07:57:54.276Z,75.75
2022-10-21T08:00:41.411Z,75.94
2022-10-21T08:03:28.564Z,75.65
2022-10-21T08:06:16.651Z,76.03
2022-10-21T08:09:04.972Z,76.35
2022-10-21T08:11:54.136Z,76.31
2022-10-21T08:14:41.025Z,76.33
2022-10-21T08:17:28.087Z,75.87
2022-10-21T08:20:15.068Z,76.93
2022-10-21T08:23:02.257Z,76.12
2022-10-21T08:25:49.057Z,76.90
2022-10-21T08:28:37.071Z,77.12
2022-10-21T08:31:35.861Z,76.09
2022-10-21T08:34:22.887Z,77.10
2022-10-21T08:37:09.732Z,76.96
2022-10-21T08:39:56.753Z,77.15
2022-10-21T08:42:44.574Z,75.89
2022-10-21T08:45:55.608Z,77.28
2022-10-21T08:48:50.132Z,76.65
2022-10-21T08:51:48.140Z,76.88
2022-10-21T08:54:44.252Z,77.23
2022-10-21T08:57:32.502Z,77.30
2022-10-21T09:00:19.454Z,77.70
2022-10-21T09:03:36.126Z,76.76
2022-10-21T09:06:48.724Z,77.07
2022-10-21T09:09:50.205Z,76.33
2022-10-21T09:12:46.656Z,77.15
2022-10-21T09:15:36.210Z,77.64
2022-10-21T09:18:45.647Z,77.37
2022-10-21T09:22:16.345Z,77.89
2022-10-21T09:25:41.787Z,77.70
2022-10-21T09:28:34.981Z,76.86
2022-10-21T09:31:31.913Z,77.80
2022-10-21T09:34:22.640Z,77.64
2022-10-21T09:37:12.389Z,77.39
2022-10-21T09:40:02.819Z,77.68
2022-10-21T09:42:50.183Z,77.93
2022-10-21T09:45:47.169Z,77.33
2022-10-21T09:48:55.077Z,77.29
2022-10-21T09:51:54.032Z,78.53
2022-10-21T09:54:44.836Z,78.34
2022-10-21T09:57:58.202Z,78.35
2022-10-21T10:01:07.130Z,77.59
2022-10-21T10:03:56.656Z,77.46
2022-10-21T10:06:58.259Z,78.28
2022-10-21T10:09:47.054Z,78.10
2022-10-21T10:12:36.898Z,78.11
2022-10-21T10:15:45.418Z,78.19
2022-10-21T10:18:42.577Z,77.65
2022-10-21T10:21:40.842Z,78.49
2022-10-21T10:24:36.415Z,78.02
2022-10-21T10:27:31.569Z,77.52
2022-10-21T10:30:20.548Z,78.55
2022-10-21T10:33:09.272Z,78.39
2022-10-21T10:35:58.277Z,78.48
2022-10-21T10:38:51.480Z,78.82
2022-10-21T10:41:38.855Z,77.58
2022-10-21T10:44:32.197Z,78.77
2022-10-21T10:47:22.146Z,78.12
2022-10-21T10:50:10.765Z,78.78
2022-10-21T10:52:57.713Z,78.11
2022-10-21T10:55:44.793Z,77.54
2022-10-21T10:58:32.904Z,77.63
2022-10-21T11:01:25.653Z,77.69
2022-10-21T11:04:21.088Z,78.71
2022-10-21T11:07:14.015Z,77.89
2022-10-21T11:10:00.972Z,78.77
2022-10-21T11:12:48.185Z,78.28
2022-10-21T11:15:35.802Z,78.98
2022-10-21T11:18:48.749Z,78.06
2022-10-21T11:22:20.988Z,79.13
2022-10-21T11:25:50.177Z,78.06
2022-10-21T11:28:37.068Z,79.13
2022-10-21T11:32:06.650Z,78.58
2022-10-21T11:35:20.944Z,78.72
2022-10-21T11:38:39.132Z,78.23
2022-10-21T11:41:46.283Z,78.50
2022-10-21T11:44:46.017Z,78.19
2022-10-21T11:47:35.739Z,78.73
2022-10-21T11:50:32.579Z,78.01
2022-10-21T11:53:26.202Z,79.00
2022-10-21T11:56:45.815Z,78.97
2022-10-21T11:59:38.305Z,78.00
2022-10-21T12:02:43.967Z,78.73
2022-10-21T12:05:51.355Z,78.90
2022-10-21T12:09:10.729Z,78.95
2022-10-21T12:12:24.354Z,78.46
2022-10-21T12:15:02.491Z,78.95
2022-10-21T12:17:53.620Z,79.03
2022-10-21T12:20:46.837Z,78.86
2022-10-21T12:23:37.920Z,79.17
2022-10-21T12:29:56.786Z,78.44
2022-10-21T12:32:52.545Z,79.08
2022-10-21T12:36:08.596Z,78.13
2022-10-21T12:39:07.150Z,78.45
2022-10-21T12:41:56.310Z,78.83
2022-10-21T12:44:48.055Z,78.16
2022-10-21T12:47:50.055Z,78.44
2022-10-21T12:50:36.888Z,79.16
2022-10-21T12:53:36.645Z,78.79
2022-10-21T12:56:25.696Z,78.44
2022-10-21T12:59:17.739Z,78.26
2022-10-21T13:02:06.671Z,78.87
2022-10-21T13:04:53.573Z,78.42
2022-10-21T13:07:50.411Z,78.44
2022-10-21T13:10:45.040Z,78.50
2022-10-21T13:13:50.337Z,78.85
2022-10-21T13:16:40.272Z,78.25
2022-10-21T13:19:36.333Z,78.42
2022-10-21T13:22:31.972Z,78.75
2022-10-21T13:25:44.073Z,78.74
2022-10-21T13:28:33.911Z,79.11
2022-10-21T13:31:21.268Z,78.17
2022-10-21T13:34:13.627Z,78.29
2022-10-21T13:37:02.372Z,78.43
2022-10-21T13:39:53.449Z,78.73
2022-10-21T13:42:40.723Z,78.62
2022-10-21T13:48:39.090Z,78.05
2022-10-21T13:51:37.954Z,78.61
2022-10-21T13:54:38.863Z,78.35
2022-10-21T13:57:27.758Z,78.64
2022-10-21T14:00:37.285Z,79.04
2022-10-21T14:03:25.987Z,78.36
2022-10-21T14:06:18.553Z,78.49
2022-10-21T14:09:07.796Z,78.99
2022-10-21T14:12:03.598Z,78.90
2022-10-21T14:14:53.460Z,78.23
2022-10-21T14:17:44.767Z,78.31
2022-10-21T14:20:42.484Z,78.16
2022-10-21T14:23:39.115Z,78.63
2022-10-21T14:26:28.449Z,78.66
2022-10-21T14:29:15.368Z,78.08
2022-10-21T14:32:02.618Z,78.71
2022-10-21T14:34:56.278Z,78.42
2022-10-21T14:37:43.497Z,78.49
2022-10-21T14:40:53.072Z,78.36
2022-10-21T14:43:47.727Z,78.54
2022-10-21T14:46:35.837Z,78.90
2022-10-21T14:49:22.782Z,78.66
2022-10-21T14:52:16.174Z,78.84
2022-10-21T14:55:04.871Z,78.54
2022-10-21T14:57:51.911Z,78.40
2022-10-21T15:00:46.808Z,78.78
2022-10-21T15:03:33.823Z,78.79
2022-10-21T15:06:43.353Z,78.58
2022-10-21T15:09:30.464Z,78.51
2022-10-21T15:12:18.538Z,78.74
2022-10-21T15:14:45.615Z,78.20
2022-10-21T15:17:16.028Z,78.13
2022-10-21T15:19:51.661Z,78.09
2022-10-21T15:22:27.407Z,78.31
2022-10-21T15:24:59.205Z,77.91
2022-10-21T15:27:26.054Z,77.65
2022-10-21T15:29:53.152Z,78.09
2022-10-21T15:32:24.509Z,78.26
2022-10-21T15:34:55.184Z,78.98
2022-10-21T15:37:22.203Z,78.23
2022-10-21T15:39:49.181Z,78.72
2022-10-21T15:42:18.518Z,78.41
2022-10-21T15:44:49.956Z,78.72
2022-10-21T15:47:17.528Z,78.23
2022-10-21T15:49:46.682Z,78.54
2022-10-21T15:52:14.208Z,78.21
2022-10-21T15:54:41.984Z,78.40
2022-10-21T15:57:19.087Z,78.64
2022-10-21T15:59:47.079Z,78.45
2022-10-21T16:02:17.545Z,78.05
2022-10-21T16:04:45.157Z,78.19
2022-10-21T16:07:22.899Z,78.12
2022-10-21T16:09:50.168Z,78.38
2022-10-21T16:12:19.685Z,77.97
2022-10-21T16:14:46.767Z,78.36
2022-10-21T16:17:14.111Z,78.46
2022-10-21T16:19:42.225Z,78.71
2022-10-21T16:22:36.871Z,78.11
2022-10-21T16:25:24.202Z,78.80
2022-10-21T16:28:15.539Z,78.58
2022-10-21T16:31:03.009Z,78.17
2022-10-21T16:33:50.228Z,78.91
2022-10-21T16:36:49.833Z,77.73
2022-10-21T16:39:42.207Z,78.68
2022-10-21T16:42:29.399Z,78.32
2022-10-21T16:45:16.299Z,78.66
2022-10-21T16:48:10.845Z,78.57
2022-10-21T16:51:03.308Z,78.36
2022-10-21T16:53:50.311Z,79.00
2022-10-21T16:56:37.424Z,78.18
2022-10-21T16:59:25.076Z,77.90
2022-10-21T17:02:11.997Z,78.00
2022-10-21T17:04:58.932Z,78.16
2022-10-21T17:07:45.813Z,78.09
2022-10-21T17:10:32.677Z,78.00
2022-10-21T17:13:19.741Z,78.87
2022-10-21T17:16:06.643Z,78.77
2022-10-21T17:18:53.633Z,78.52
2022-10-21T17:21:41.998Z,78.55
2022-10-21T17:24:34.477Z,77.76
2022-10-21T17:27:21.504Z,79.16
2022-10-21T17:30:08.487Z,78.94
2022-10-21T17:32:55.439Z,79.28
2022-10-21T17:35:42.445Z,79.36
2022-10-21T17:38:29.375Z,79.25
2022-10-21T17:41:16.253Z,78.58
2022-10-21T17:44:03.700Z,79.11
2022-10-21T17:46:50.560Z,79.22
2022-10-21T17:49:37.650Z,79.15
2022-10-21T17:52:24.617Z,78.56
2022-10-21T17:55:11.527Z,78.43
2022-10-21T17:57:58.505Z,78.29
2022-10-21T18:00:45.632Z,79.05
2022-10-21T18:03:32.531Z,78.94
2022-10-21T18:06:19.586Z,78.27
2022-10-21T18:09:06.890Z,78.53
2022-10-21T18:11:55.594Z,79.25
2022-10-21T18:14:42.597Z,79.20
2022-10-21T18:17:29.518Z,78.42
2022-10-21T18:20:16.737Z,78.96
2022-10-21T18:23:03.633Z,79.09
2022-10-21T18:25:50.468Z,78.99
2022-10-21T18:28:37.425Z,78.17
2022-10-21T18:31:25.490Z,78.67
2022-10-21T18:34:15.151Z,78.66
2022-10-21T18:37:02.191Z,78.38
2022-10-21T18:39:49.267Z,79.20
2022-10-21T18:42:36.329Z,78.25
2022-10-21T18:45:23.573Z,78.82
2022-10-21T18:48:10.477Z,78.83
2022-10-21T18:50:57.380Z,78.86
2022-10-21T18:53:47.247Z,79.06
2022-10-21T18:56:37.903Z,79.29
2022-10-21T18:59:24.981Z,78.03
2022-10-21T19:02:14.022Z,78.72
2022-10-21T19:05:02.481Z,78.81
2022-10-21T19:07:49.919Z,78.63
2022-10-21T19:10:36.946Z,78.15
2022-10-21T19:13:23.855Z,79.16
2022-10-21T19:16:10.836Z,79.18
2022-10-21T19:18:57.697Z,78.18
2022-10-21T19:21:44.988Z,78.13
2022-10-21T19:24:32.199Z,78.01
2022-10-21T19:27:19.512Z,78.14
2022-10-21T19:30:06.372Z,79.09
2022-10-21T19:32:53.224Z,78.14
2022-10-21T19:35:20.619Z,78.97
2022-10-21T19:38:11.553Z,78.34
2022-10-21T19:41:02.842Z,79.15
2022-10-21T19:43:49.764Z,78.46
2022-10-21T19:47:01.377Z,78.46
2022-10-21T19:49:48.349Z,79.08
2022-10-21T19:52:35.284Z,78.26
2022-10-21T19:55:22.086Z,77.61
2022-10-21T19:58:08.984Z,78.08
2022-10-21T20:00:56.287Z,77.87
2022-10-21T20:03:43.351Z,78.73
2022-10-21T20:06:33.453Z,77.95
2022-10-21T20:09:24.436Z,78.40
2022-10-21T20:12:11.332Z,78.66
2022-10-21T20:14:58.428Z,78.31
2022-10-21T20:17:45.320Z,78.18
2022-10-21T20:20:32.232Z,78.56
2022-10-21T20:23:19.071Z,78.83
2022-10-21T20:26:09.301Z,79.07
2022-10-21T20:28:57.411Z,77.91
2022-10-21T20:31:44.801Z,78.06
2022-10-21T20:34:13.683Z,78.37
2022-10-21T20:36:40.971Z,78.69
2022-10-21T20:39:07.935Z,77.87
2022-10-21T20:41:37.366Z,77.96
2022-10-21T20:44:07.775Z,77.99
2022-10-21T20:46:36.388Z,78.80
2022-10-21T20:49:07.780Z,77.78
2022-10-21T20:51:38.096Z,78.74
2022-10-21T20:54:08.362Z,79.12
2022-10-21T20:56:38.643Z,79.32
2022-10-21T20:59:07.229Z,78.73
2022-10-21T21:01:41.338Z,77.87
2022-10-21T21:04:12.681Z,78.18
2022-10-21T21:06:44.833Z,78.56
2022-10-21T21:12:02.847Z,79.00
2022-10-21T21:14:30.074Z,78.77
2022-10-21T21:16:57.044Z,78.25
2022-10-21T21:19:24.499Z,78.08
2022-10-21T21:21:51.446Z,78.97
2022-10-21T21:24:18.352Z,78.17
2022-10-21T21:26:45.837Z,78.87
2022-10-21T21:29:13.841Z,78.93
2022-10-21T21:31:41.689Z,79.19
2022-10-21T21:34:09.702Z,79.64
2022-10-21T21:36:36.971Z,79.04
2022-10-21T21:39:05.747Z,78.85
2022-10-21T21:41:33.307Z,78.85
2022-10-21T21:44:00.263Z,79.57
2022-10-21T21:46:27.638Z,78.34
2022-10-21T21:49:00.871Z,78.26
2022-10-21T21:51:29.487Z,78.56
2022-10-21T21:53:57.806Z,78.58
2022-10-21T21:56:26.879Z,78.63
2022-10-21T21:58:56.060Z,79.74
2022-10-21T22:01:25.421Z,79.24
2022-10-21T22:03:53.468Z,79.59
2022-10-21T22:06:22.933Z,78.96
2022-10-21T22:08:50.735Z,78.95
2022-10-21T22:11:20.875Z,79.19
2022-10-21T22:13:48.365Z,80.17
2022-10-21T22:16:16.194Z,79.35
2022-10-21T22:18:43.996Z,79.42
2022-10-21T22:21:13.533Z,78.80
2022-10-21T22:24:01.043Z,79.87
2022-10-21T22:26:47.889Z,79.01
2022-10-21T22:29:34.964Z,78.70
2022-10-21T22:32:21.880Z,79.63
2022-10-21T22:35:08.866Z,79.21
2022-10-21T22:37:56.037Z,79.20
2022-10-21T22:40:42.984Z,78.75
2022-10-21T22:43:29.865Z,79.37
2022-10-21T22:46:05.104Z,79.13
2022-10-21T22:49:02.276Z,79.08
2022-10-21T22:54:49.073Z,78.85
2022-10-21T22:57:36.774Z,78.62
2022-10-21T23:00:24.777Z,80.08
2022-10-21T23:03:11.751Z,79.71
2022-10-21T23:05:58.573Z,79.86
2022-10-21T23:08:45.753Z,78.99
2022-10-21T23:11:32.665Z,78.80
2022-10-21T23:14:19.797Z,79.18
2022-10-21T23:17:06.690Z,79.31
2022-10-21T23:19:53.744Z,78.61
2022-10-21T23:22:40.917Z,79.70
2022-10-21T23:25:28.724Z,78.98
2022-10-21T23:28:16.464Z,78.97
2022-10-21T23:31:03.544Z,78.72
2022-10-21T23:33:50.369Z,79.84
2022-10-21T23:36:37.472Z,78.81
2022-10-21T23:39:24.775Z,79.37
2022-10-21T23:42:11.762Z,80.04
2022-10-21T23:44:58.556Z,80.12
2022-10-21T23:47:45.680Z,79.66
2022-10-21T23:50:32.551Z,79.46
2022-10-21T23:53:19.656Z,79.20
2022-10-21T23:56:06.435Z,79.81
2022-10-21T23:58:53.546Z,80.11
